sensor_id;sensor_type;location;lat;lon;timestamp;P1;durP1;ratioP1;P2;durP2;ratioP2
5351;SDS011;2698;51.454;6.736;2023-06-19T00:00:31;8.40;;;7.37;;
5351;SDS011;2698;51.454;6.736;2023-06-19T00:02:58;17.03;;;7.20;;
5351;SDS011;2698;51.454;6.736;2023-06-19T00:05:25;12.77;;;6.50;;
5351;SDS011;2698;51.454;6.736;2023-06-19T00:07:52;8.70;;;7.30;;
5351;SDS011;2698;51.454;6.736;2023-06-19T00:10:19;7.47;;;6.70;;
5351;SDS011;2698;51.454;6.736;2023-06-19T00:12:46;9.80;;;7.37;;
5351;SDS011;2698;51.454;6.736;2023-06-19T00:15:15;10.73;;;6.57;;
5351;SDS011;2698;51.454;6.736;2023-06-19T00:17:42;13.50;;;7.33;;
5351;SDS011;2698;51.454;6.736;2023-06-19T00:20:09;9.20;;;6.77;;
5351;SDS011;2698;51.454;6.736;2023-06-19T00:22:38;15.77;;;6.87;;
5351;SDS011;2698;51.454;6.736;2023-06-19T00:25:05;9.67;;;6.80;;
5351;SDS011;2698;51.454;6.736;2023-06-19T00:27:33;8.43;;;6.90;;
5351;SDS011;2698;51.454;6.736;2023-06-19T00:30:00;8.03;;;6.63;;
5351;SDS011;2698;51.454;6.736;2023-06-19T00:32:29;13.30;;;7.13;;
5351;SDS011;2698;51.454;6.736;2023-06-19T00:34:56;10.67;;;7.20;;
5351;SDS011;2698;51.454;6.736;2023-06-19T00:37:25;9.73;;;6.47;;
5351;SDS011;2698;51.454;6.736;2023-06-19T00:39:57;18.47;;;7.37;;
5351;SDS011;2698;51.454;6.736;2023-06-19T00:42:24;7.93;;;6.60;;
5351;SDS011;2698;51.454;6.736;2023-06-19T00:44:51;7.93;;;6.33;;
5351;SDS011;2698;51.454;6.736;2023-06-19T00:47:18;10.47;;;7.33;;
5351;SDS011;2698;51.454;6.736;2023-06-19T00:49:46;9.23;;;7.10;;
5351;SDS011;2698;51.454;6.736;2023-06-19T00:52:14;7.80;;;7.00;;
5351;SDS011;2698;51.454;6.736;2023-06-19T00:54:41;5.90;;;5.30;;
5351;SDS011;2698;51.454;6.736;2023-06-19T00:57:08;9.17;;;7.00;;
5351;SDS011;2698;51.454;6.736;2023-06-19T00:59:36;7.00;;;6.10;;
5351;SDS011;2698;51.454;6.736;2023-06-19T01:02:03;7.23;;;6.60;;
5351;SDS011;2698;51.454;6.736;2023-06-19T01:04:30;7.27;;;6.13;;
5351;SDS011;2698;51.454;6.736;2023-06-19T01:06:59;12.80;;;5.90;;
5351;SDS011;2698;51.454;6.736;2023-06-19T01:09:36;7.17;;;5.90;;
5351;SDS011;2698;51.454;6.736;2023-06-19T01:12:08;8.60;;;6.30;;
5351;SDS011;2698;51.454;6.736;2023-06-19T01:14:38;6.70;;;6.07;;
5351;SDS011;2698;51.454;6.736;2023-06-19T01:17:06;7.40;;;6.40;;
5351;SDS011;2698;51.454;6.736;2023-06-19T01:19:33;7.30;;;6.60;;
5351;SDS011;2698;51.454;6.736;2023-06-19T01:22:02;11.20;;;7.17;;
5351;SDS011;2698;51.454;6.736;2023-06-19T01:24:30;7.70;;;6.90;;
5351;SDS011;2698;51.454;6.736;2023-06-19T01:26:57;6.83;;;6.10;;
5351;SDS011;2698;51.454;6.736;2023-06-19T01:29:24;10.90;;;6.50;;
5351;SDS011;2698;51.454;6.736;2023-06-19T01:31:52;8.37;;;6.50;;
5351;SDS011;2698;51.454;6.736;2023-06-19T01:34:22;10.87;;;7.63;;
5351;SDS011;2698;51.454;6.736;2023-06-19T01:36:49;8.20;;;6.30;;
5351;SDS011;2698;51.454;6.736;2023-06-19T01:39:18;7.13;;;6.43;;
5351;SDS011;2698;51.454;6.736;2023-06-19T01:41:46;8.23;;;6.90;;
5351;SDS011;2698;51.454;6.736;2023-06-19T01:44:14;10.23;;;7.50;;
5351;SDS011;2698;51.454;6.736;2023-06-19T01:46:41;9.30;;;7.07;;
5351;SDS011;2698;51.454;6.736;2023-06-19T01:49:08;10.70;;;7.10;;
5351;SDS011;2698;51.454;6.736;2023-06-19T01:51:36;7.43;;;6.63;;
5351;SDS011;2698;51.454;6.736;2023-06-19T01:54:03;13.33;;;8.17;;
5351;SDS011;2698;51.454;6.736;2023-06-19T01:56:32;9.40;;;7.33;;
5351;SDS011;2698;51.454;6.736;2023-06-19T01:58:59;13.17;;;7.30;;
5351;SDS011;2698;51.454;6.736;2023-06-19T02:01:26;12.27;;;7.90;;
5351;SDS011;2698;51.454;6.736;2023-06-19T02:03:53;9.50;;;7.23;;
5351;SDS011;2698;51.454;6.736;2023-06-19T02:06:20;12.83;;;6.90;;
5351;SDS011;2698;51.454;6.736;2023-06-19T02:08:47;7.93;;;7.17;;
5351;SDS011;2698;51.454;6.736;2023-06-19T02:11:14;6.80;;;6.13;;
5351;SDS011;2698;51.454;6.736;2023-06-19T02:13:43;11.43;;;7.90;;
5351;SDS011;2698;51.454;6.736;2023-06-19T02:16:10;12.03;;;7.50;;
5351;SDS011;2698;51.454;6.736;2023-06-19T02:18:37;13.23;;;8.97;;
5351;SDS011;2698;51.454;6.736;2023-06-19T02:21:04;13.93;;;7.50;;
5351;SDS011;2698;51.454;6.736;2023-06-19T02:23:31;9.80;;;8.80;;
5351;SDS011;2698;51.454;6.736;2023-06-19T02:25:58;10.60;;;9.10;;
5351;SDS011;2698;51.454;6.736;2023-06-19T02:28:25;9.80;;;8.10;;
5351;SDS011;2698;51.454;6.736;2023-06-19T02:30:54;16.47;;;7.90;;
5351;SDS011;2698;51.454;6.736;2023-06-19T02:33:21;10.60;;;7.63;;
5351;SDS011;2698;51.454;6.736;2023-06-19T02:35:48;9.77;;;8.50;;
5351;SDS011;2698;51.454;6.736;2023-06-19T02:38:16;9.47;;;8.07;;
5351;SDS011;2698;51.454;6.736;2023-06-19T02:40:46;11.43;;;8.20;;
5351;SDS011;2698;51.454;6.736;2023-06-19T02:43:13;12.83;;;8.27;;
5351;SDS011;2698;51.454;6.736;2023-06-19T02:45:40;8.77;;;7.87;;
5351;SDS011;2698;51.454;6.736;2023-06-19T02:48:09;8.23;;;7.53;;
5351;SDS011;2698;51.454;6.736;2023-06-19T02:50:36;9.63;;;7.43;;
5351;SDS011;2698;51.454;6.736;2023-06-19T02:53:03;10.30;;;7.43;;
5351;SDS011;2698;51.454;6.736;2023-06-19T02:55:30;10.20;;;7.87;;
5351;SDS011;2698;51.454;6.736;2023-06-19T02:57:57;7.93;;;7.07;;
5351;SDS011;2698;51.454;6.736;2023-06-19T03:00:24;7.37;;;6.60;;
5351;SDS011;2698;51.454;6.736;2023-06-19T03:02:53;8.73;;;6.67;;
5351;SDS011;2698;51.454;6.736;2023-06-19T03:05:22;7.40;;;6.70;;
5351;SDS011;2698;51.454;6.736;2023-06-19T03:07:49;7.77;;;6.17;;
5351;SDS011;2698;51.454;6.736;2023-06-19T03:10:16;7.57;;;5.43;;
5351;SDS011;2698;51.454;6.736;2023-06-19T03:12:43;4.83;;;4.43;;
5351;SDS011;2698;51.454;6.736;2023-06-19T03:15:11;6.60;;;5.80;;
5351;SDS011;2698;51.454;6.736;2023-06-19T03:17:38;8.90;;;5.83;;
5351;SDS011;2698;51.454;6.736;2023-06-19T03:20:05;7.77;;;5.60;;
5351;SDS011;2698;51.454;6.736;2023-06-19T03:22:38;5.57;;;4.90;;
5351;SDS011;2698;51.454;6.736;2023-06-19T03:25:05;5.57;;;5.07;;
5351;SDS011;2698;51.454;6.736;2023-06-19T03:27:32;5.03;;;4.07;;
5351;SDS011;2698;51.454;6.736;2023-06-19T03:30:00;5.53;;;4.63;;
5351;SDS011;2698;51.454;6.736;2023-06-19T03:32:28;4.33;;;3.87;;
5351;SDS011;2698;51.454;6.736;2023-06-19T03:34:55;5.30;;;4.80;;
5351;SDS011;2698;51.454;6.736;2023-06-19T03:37:22;5.17;;;4.67;;
5351;SDS011;2698;51.454;6.736;2023-06-19T03:39:50;5.40;;;4.60;;
5351;SDS011;2698;51.454;6.736;2023-06-19T03:42:17;4.30;;;3.90;;
5351;SDS011;2698;51.454;6.736;2023-06-19T03:44:44;4.23;;;3.87;;
5351;SDS011;2698;51.454;6.736;2023-06-19T03:47:11;3.87;;;3.50;;
5351;SDS011;2698;51.454;6.736;2023-06-19T03:49:38;5.03;;;4.27;;
5351;SDS011;2698;51.454;6.736;2023-06-19T03:52:06;4.80;;;4.40;;
5351;SDS011;2698;51.454;6.736;2023-06-19T03:54:33;4.40;;;4.00;;
5351;SDS011;2698;51.454;6.736;2023-06-19T03:57:01;4.63;;;4.23;;
5351;SDS011;2698;51.454;6.736;2023-06-19T03:59:28;5.57;;;4.53;;
5351;SDS011;2698;51.454;6.736;2023-06-19T04:01:56;5.00;;;4.10;;
5351;SDS011;2698;51.454;6.736;2023-06-19T04:04:23;9.43;;;4.07;;
5351;SDS011;2698;51.454;6.736;2023-06-19T04:06:50;4.60;;;4.10;;
5351;SDS011;2698;51.454;6.736;2023-06-19T04:09:17;5.50;;;4.60;;
5351;SDS011;2698;51.454;6.736;2023-06-19T04:11:44;8.67;;;4.73;;
5351;SDS011;2698;51.454;6.736;2023-06-19T04:14:13;5.40;;;4.83;;
5351;SDS011;2698;51.454;6.736;2023-06-19T04:16:40;4.33;;;4.00;;
5351;SDS011;2698;51.454;6.736;2023-06-19T04:19:07;5.43;;;4.30;;
5351;SDS011;2698;51.454;6.736;2023-06-19T04:21:34;6.53;;;4.60;;
5351;SDS011;2698;51.454;6.736;2023-06-19T04:24:02;8.33;;;5.30;;
5351;SDS011;2698;51.454;6.736;2023-06-19T04:26:30;7.53;;;5.20;;
5351;SDS011;2698;51.454;6.736;2023-06-19T04:28:57;5.43;;;4.50;;
5351;SDS011;2698;51.454;6.736;2023-06-19T04:31:27;5.20;;;4.70;;
5351;SDS011;2698;51.454;6.736;2023-06-19T04:33:55;9.60;;;4.60;;
5351;SDS011;2698;51.454;6.736;2023-06-19T04:36:22;5.80;;;4.40;;
5351;SDS011;2698;51.454;6.736;2023-06-19T04:38:49;10.10;;;4.70;;
5351;SDS011;2698;51.454;6.736;2023-06-19T04:41:17;6.67;;;4.63;;
5351;SDS011;2698;51.454;6.736;2023-06-19T04:43:44;5.60;;;4.70;;
5351;SDS011;2698;51.454;6.736;2023-06-19T04:46:11;6.27;;;4.53;;
5351;SDS011;2698;51.454;6.736;2023-06-19T04:48:39;7.40;;;4.20;;
5351;SDS011;2698;51.454;6.736;2023-06-19T04:51:06;7.20;;;3.93;;
5351;SDS011;2698;51.454;6.736;2023-06-19T04:53:33;5.17;;;4.23;;
5351;SDS011;2698;51.454;6.736;2023-06-19T04:56:00;5.47;;;4.70;;
5351;SDS011;2698;51.454;6.736;2023-06-19T04:58:27;6.83;;;5.50;;
5351;SDS011;2698;51.454;6.736;2023-06-19T05:00:54;7.80;;;4.97;;
5351;SDS011;2698;51.454;6.736;2023-06-19T05:03:22;7.33;;;4.77;;
5351;SDS011;2698;51.454;6.736;2023-06-19T05:05:50;4.40;;;4.00;;
5351;SDS011;2698;51.454;6.736;2023-06-19T05:08:17;4.20;;;3.80;;
5351;SDS011;2698;51.454;6.736;2023-06-19T05:10:44;7.13;;;4.80;;
5351;SDS011;2698;51.454;6.736;2023-06-19T05:13:12;8.30;;;3.97;;
5351;SDS011;2698;51.454;6.736;2023-06-19T05:15:39;7.10;;;4.00;;
5351;SDS011;2698;51.454;6.736;2023-06-19T05:18:06;6.70;;;4.27;;
5351;SDS011;2698;51.454;6.736;2023-06-19T05:20:33;3.77;;;3.57;;
5351;SDS011;2698;51.454;6.736;2023-06-19T05:23:01;5.80;;;4.53;;
5351;SDS011;2698;51.454;6.736;2023-06-19T05:25:28;5.70;;;4.83;;
5351;SDS011;2698;51.454;6.736;2023-06-19T05:27:55;4.10;;;3.70;;
5351;SDS011;2698;51.454;6.736;2023-06-19T05:30:22;5.57;;;4.83;;
5351;SDS011;2698;51.454;6.736;2023-06-19T05:32:49;4.43;;;4.03;;
5351;SDS011;2698;51.454;6.736;2023-06-19T05:35:17;6.17;;;3.67;;
5351;SDS011;2698;51.454;6.736;2023-06-19T05:37:44;3.80;;;3.50;;
5351;SDS011;2698;51.454;6.736;2023-06-19T05:40:13;4.57;;;4.17;;
5351;SDS011;2698;51.454;6.736;2023-06-19T05:42:40;5.33;;;3.60;;
5351;SDS011;2698;51.454;6.736;2023-06-19T05:45:07;5.40;;;3.37;;
5351;SDS011;2698;51.454;6.736;2023-06-19T05:47:34;5.73;;;3.83;;
5351;SDS011;2698;51.454;6.736;2023-06-19T05:50:02;5.90;;;3.47;;
5351;SDS011;2698;51.454;6.736;2023-06-19T05:52:29;4.10;;;3.70;;
5351;SDS011;2698;51.454;6.736;2023-06-19T05:54:56;6.83;;;4.20;;
5351;SDS011;2698;51.454;6.736;2023-06-19T05:57:25;9.40;;;4.10;;
5351;SDS011;2698;51.454;6.736;2023-06-19T05:59:52;4.30;;;3.90;;
5351;SDS011;2698;51.454;6.736;2023-06-19T06:02:19;3.80;;;3.50;;
5351;SDS011;2698;51.454;6.736;2023-06-19T06:04:46;7.43;;;4.23;;
5351;SDS011;2698;51.454;6.736;2023-06-19T06:07:13;10.13;;;3.93;;
5351;SDS011;2698;51.454;6.736;2023-06-19T06:09:41;3.50;;;3.30;;
5351;SDS011;2698;51.454;6.736;2023-06-19T06:12:08;4.50;;;3.70;;
5351;SDS011;2698;51.454;6.736;2023-06-19T06:14:36;9.23;;;3.50;;
5351;SDS011;2698;51.454;6.736;2023-06-19T06:17:03;3.60;;;3.30;;
5351;SDS011;2698;51.454;6.736;2023-06-19T06:19:31;3.70;;;3.40;;
5351;SDS011;2698;51.454;6.736;2023-06-19T06:21:58;5.93;;;3.90;;
5351;SDS011;2698;51.454;6.736;2023-06-19T06:24:25;4.00;;;3.70;;
5351;SDS011;2698;51.454;6.736;2023-06-19T06:26:52;9.30;;;3.73;;
5351;SDS011;2698;51.454;6.736;2023-06-19T06:29:20;5.37;;;3.67;;
5351;SDS011;2698;51.454;6.736;2023-06-19T06:31:48;4.13;;;3.50;;
5351;SDS011;2698;51.454;6.736;2023-06-19T06:34:17;3.50;;;3.30;;
5351;SDS011;2698;51.454;6.736;2023-06-19T06:36:44;3.33;;;3.03;;
5351;SDS011;2698;51.454;6.736;2023-06-19T06:39:11;3.13;;;2.93;;
5351;SDS011;2698;51.454;6.736;2023-06-19T06:41:38;6.60;;;3.60;;
5351;SDS011;2698;51.454;6.736;2023-06-19T06:44:05;4.57;;;3.90;;
5351;SDS011;2698;51.454;6.736;2023-06-19T06:46:32;7.27;;;5.13;;
5351;SDS011;2698;51.454;6.736;2023-06-19T06:49:02;3.13;;;2.93;;
5351;SDS011;2698;51.454;6.736;2023-06-19T06:51:29;4.10;;;3.70;;
5351;SDS011;2698;51.454;6.736;2023-06-19T06:53:56;4.40;;;3.53;;
5351;SDS011;2698;51.454;6.736;2023-06-19T06:56:23;3.20;;;3.00;;
5351;SDS011;2698;51.454;6.736;2023-06-19T06:58:50;6.43;;;4.17;;
5351;SDS011;2698;51.454;6.736;2023-06-19T07:01:17;3.03;;;2.83;;
5351;SDS011;2698;51.454;6.736;2023-06-19T07:03:44;4.27;;;3.50;;
5351;SDS011;2698;51.454;6.736;2023-06-19T07:06:13;4.97;;;3.10;;
5351;SDS011;2698;51.454;6.736;2023-06-19T07:08:40;12.13;;;4.10;;
5351;SDS011;2698;51.454;6.736;2023-06-19T07:11:07;4.20;;;3.80;;
5351;SDS011;2698;51.454;6.736;2023-06-19T07:13:34;5.20;;;3.37;;
5351;SDS011;2698;51.454;6.736;2023-06-19T07:16:01;13.40;;;4.10;;
5351;SDS011;2698;51.454;6.736;2023-06-19T07:18:30;4.13;;;3.83;;
5351;SDS011;2698;51.454;6.736;2023-06-19T07:20:58;5.63;;;4.30;;
5351;SDS011;2698;51.454;6.736;2023-06-19T07:23:26;3.90;;;3.57;;
5351;SDS011;2698;51.454;6.736;2023-06-19T07:25:54;4.17;;;3.73;;
5351;SDS011;2698;51.454;6.736;2023-06-19T07:28:21;4.83;;;3.57;;
5351;SDS011;2698;51.454;6.736;2023-06-19T07:30:48;5.93;;;3.63;;
5351;SDS011;2698;51.454;6.736;2023-06-19T07:33:17;4.30;;;3.80;;
5351;SDS011;2698;51.454;6.736;2023-06-19T07:35:44;4.00;;;3.27;;
5351;SDS011;2698;51.454;6.736;2023-06-19T07:38:11;4.13;;;3.80;;
5351;SDS011;2698;51.454;6.736;2023-06-19T07:40:39;3.77;;;3.30;;
5351;SDS011;2698;51.454;6.736;2023-06-19T07:43:06;5.70;;;3.80;;
5351;SDS011;2698;51.454;6.736;2023-06-19T07:45:33;4.30;;;3.60;;
5351;SDS011;2698;51.454;6.736;2023-06-19T07:48:00;3.57;;;3.23;;
5351;SDS011;2698;51.454;6.736;2023-06-19T07:50:28;3.83;;;3.33;;
5351;SDS011;2698;51.454;6.736;2023-06-19T07:52:55;5.07;;;3.47;;
5351;SDS011;2698;51.454;6.736;2023-06-19T07:55:22;9.93;;;4.13;;
5351;SDS011;2698;51.454;6.736;2023-06-19T07:57:50;5.13;;;3.47;;
5351;SDS011;2698;51.454;6.736;2023-06-19T08:00:21;5.03;;;3.33;;
5351;SDS011;2698;51.454;6.736;2023-06-19T08:02:49;12.77;;;3.70;;
5351;SDS011;2698;51.454;6.736;2023-06-19T08:05:16;4.00;;;3.60;;
5351;SDS011;2698;51.454;6.736;2023-06-19T08:07:44;5.23;;;3.27;;
5351;SDS011;2698;51.454;6.736;2023-06-19T08:10:11;5.80;;;3.03;;
5351;SDS011;2698;51.454;6.736;2023-06-19T08:12:38;2.83;;;2.63;;
5351;SDS011;2698;51.454;6.736;2023-06-19T08:15:07;3.30;;;3.00;;
5351;SDS011;2698;51.454;6.736;2023-06-19T08:17:34;2.83;;;2.50;;
5351;SDS011;2698;51.454;6.736;2023-06-19T08:20:02;4.70;;;3.27;;
5351;SDS011;2698;51.454;6.736;2023-06-19T08:22:30;3.00;;;2.80;;
5351;SDS011;2698;51.454;6.736;2023-06-19T08:24:57;6.17;;;2.60;;
5351;SDS011;2698;51.454;6.736;2023-06-19T08:27:24;3.63;;;3.23;;
5351;SDS011;2698;51.454;6.736;2023-06-19T08:29:51;4.50;;;2.97;;
5351;SDS011;2698;51.454;6.736;2023-06-19T08:32:19;3.07;;;2.87;;
5351;SDS011;2698;51.454;6.736;2023-06-19T08:34:46;4.10;;;2.90;;
5351;SDS011;2698;51.454;6.736;2023-06-19T08:37:14;5.83;;;2.67;;
5351;SDS011;2698;51.454;6.736;2023-06-19T08:39:42;5.33;;;2.87;;
5351;SDS011;2698;51.454;6.736;2023-06-19T08:42:09;2.80;;;2.60;;
5351;SDS011;2698;51.454;6.736;2023-06-19T08:44:36;4.57;;;2.60;;
5351;SDS011;2698;51.454;6.736;2023-06-19T08:47:03;7.67;;;3.33;;
5351;SDS011;2698;51.454;6.736;2023-06-19T08:49:33;4.70;;;3.00;;
5351;SDS011;2698;51.454;6.736;2023-06-19T08:52:00;7.03;;;3.10;;
5351;SDS011;2698;51.454;6.736;2023-06-19T08:54:27;3.23;;;2.87;;
5351;SDS011;2698;51.454;6.736;2023-06-19T08:56:54;3.90;;;3.13;;
5351;SDS011;2698;51.454;6.736;2023-06-19T08:59:22;4.20;;;2.80;;
5351;SDS011;2698;51.454;6.736;2023-06-19T09:01:49;3.97;;;3.20;;
5351;SDS011;2698;51.454;6.736;2023-06-19T09:04:17;6.27;;;3.90;;
5351;SDS011;2698;51.454;6.736;2023-06-19T09:06:50;8.40;;;3.60;;
5351;SDS011;2698;51.454;6.736;2023-06-19T09:09:19;5.57;;;3.70;;
5351;SDS011;2698;51.454;6.736;2023-06-19T09:11:56;4.17;;;3.30;;
5351;SDS011;2698;51.454;6.736;2023-06-19T09:14:31;7.50;;;3.57;;
5351;SDS011;2698;51.454;6.736;2023-06-19T09:16:58;4.80;;;2.90;;
5351;SDS011;2698;51.454;6.736;2023-06-19T09:19:25;5.40;;;4.03;;
5351;SDS011;2698;51.454;6.736;2023-06-19T09:21:54;3.57;;;3.27;;
5351;SDS011;2698;51.454;6.736;2023-06-19T09:24:32;3.20;;;2.90;;
5351;SDS011;2698;51.454;6.736;2023-06-19T09:27:05;4.67;;;3.83;;
5351;SDS011;2698;51.454;6.736;2023-06-19T09:29:32;10.43;;;3.70;;
5351;SDS011;2698;51.454;6.736;2023-06-19T09:31:59;4.70;;;4.30;;
5351;SDS011;2698;51.454;6.736;2023-06-19T09:34:26;5.83;;;5.17;;
5351;SDS011;2698;51.454;6.736;2023-06-19T09:36:54;4.33;;;3.57;;
5351;SDS011;2698;51.454;6.736;2023-06-19T09:39:21;9.93;;;4.33;;
5351;SDS011;2698;51.454;6.736;2023-06-19T09:41:51;4.90;;;4.20;;
5351;SDS011;2698;51.454;6.736;2023-06-19T09:44:19;8.27;;;4.27;;
5351;SDS011;2698;51.454;6.736;2023-06-19T09:46:49;6.50;;;3.50;;
5351;SDS011;2698;51.454;6.736;2023-06-19T09:49:16;9.47;;;3.80;;
5351;SDS011;2698;51.454;6.736;2023-06-19T09:51:45;7.77;;;4.20;;
5351;SDS011;2698;51.454;6.736;2023-06-19T09:54:13;7.70;;;4.00;;
5351;SDS011;2698;51.454;6.736;2023-06-19T09:56:41;8.70;;;4.23;;
5351;SDS011;2698;51.454;6.736;2023-06-19T09:59:08;4.43;;;3.17;;
5351;SDS011;2698;51.454;6.736;2023-06-19T10:01:35;8.93;;;3.93;;
5351;SDS011;2698;51.454;6.736;2023-06-19T10:04:04;5.40;;;4.30;;
5351;SDS011;2698;51.454;6.736;2023-06-19T10:06:31;4.57;;;3.50;;
5351;SDS011;2698;51.454;6.736;2023-06-19T10:09:05;5.93;;;3.57;;
5351;SDS011;2698;51.454;6.736;2023-06-19T10:11:45;5.43;;;4.80;;
5351;SDS011;2698;51.454;6.736;2023-06-19T10:14:12;5.97;;;4.60;;
5351;SDS011;2698;51.454;6.736;2023-06-19T10:16:40;9.23;;;5.00;;
5351;SDS011;2698;51.454;6.736;2023-06-19T10:19:11;5.70;;;4.50;;
5351;SDS011;2698;51.454;6.736;2023-06-19T10:21:43;7.40;;;5.20;;
5351;SDS011;2698;51.454;6.736;2023-06-19T10:24:13;5.40;;;4.90;;
5351;SDS011;2698;51.454;6.736;2023-06-19T10:26:41;5.90;;;4.67;;
5351;SDS011;2698;51.454;6.736;2023-06-19T10:29:16;5.00;;;4.60;;
5351;SDS011;2698;51.454;6.736;2023-06-19T10:31:43;7.95;;;5.05;;
5351;SDS011;2698;51.454;6.736;2023-06-19T10:34:11;5.40;;;4.53;;
5351;SDS011;2698;51.454;6.736;2023-06-19T10:36:39;4.57;;;4.20;;
5351;SDS011;2698;51.454;6.736;2023-06-19T10:39:06;6.67;;;4.60;;
5351;SDS011;2698;51.454;6.736;2023-06-19T10:41:33;13.40;;;4.15;;
5351;SDS011;2698;51.454;6.736;2023-06-19T10:44:03;5.03;;;4.50;;
5351;SDS011;2698;51.454;6.736;2023-06-19T10:46:32;5.93;;;4.80;;
5351;SDS011;2698;51.454;6.736;2023-06-19T10:49:01;5.10;;;4.53;;
5351;SDS011;2698;51.454;6.736;2023-06-19T10:51:29;5.80;;;5.30;;
5351;SDS011;2698;51.454;6.736;2023-06-19T10:53:56;7.47;;;5.00;;
5351;SDS011;2698;51.454;6.736;2023-06-19T10:56:25;5.23;;;4.73;;
5351;SDS011;2698;51.454;6.736;2023-06-19T10:58:59;9.87;;;5.37;;
5351;SDS011;2698;51.454;6.736;2023-06-19T11:01:34;7.57;;;4.43;;
5351;SDS011;2698;51.454;6.736;2023-06-19T11:04:03;5.10;;;4.70;;
5351;SDS011;2698;51.454;6.736;2023-06-19T11:06:31;8.10;;;5.57;;
5351;SDS011;2698;51.454;6.736;2023-06-19T11:08:58;5.40;;;5.00;;
5351;SDS011;2698;51.454;6.736;2023-06-19T11:11:34;5.80;;;5.30;;
5351;SDS011;2698;51.454;6.736;2023-06-19T11:14:01;6.13;;;5.50;;
5351;SDS011;2698;51.454;6.736;2023-06-19T11:16:28;7.43;;;5.47;;
5351;SDS011;2698;51.454;6.736;2023-06-19T11:18:57;5.53;;;5.03;;
5351;SDS011;2698;51.454;6.736;2023-06-19T11:21:29;8.40;;;5.40;;
5351;SDS011;2698;51.454;6.736;2023-06-19T11:23:58;10.13;;;5.07;;
5351;SDS011;2698;51.454;6.736;2023-06-19T11:26:25;10.20;;;5.60;;
5351;SDS011;2698;51.454;6.736;2023-06-19T11:28:52;5.00;;;4.50;;
5351;SDS011;2698;51.454;6.736;2023-06-19T11:31:25;5.60;;;5.10;;
5351;SDS011;2698;51.454;6.736;2023-06-19T11:33:59;7.30;;;5.57;;
5351;SDS011;2698;51.454;6.736;2023-06-19T11:36:27;9.03;;;5.90;;
5351;SDS011;2698;51.454;6.736;2023-06-19T11:38:55;15.07;;;7.00;;
5351;SDS011;2698;51.454;6.736;2023-06-19T11:41:25;10.10;;;7.47;;
5351;SDS011;2698;51.454;6.736;2023-06-19T11:43:58;7.10;;;5.90;;
5351;SDS011;2698;51.454;6.736;2023-06-19T11:46:28;5.30;;;4.80;;
5351;SDS011;2698;51.454;6.736;2023-06-19T11:48:55;10.53;;;6.03;;
5351;SDS011;2698;51.454;6.736;2023-06-19T11:51:24;6.83;;;5.63;;
5351;SDS011;2698;51.454;6.736;2023-06-19T11:53:51;12.33;;;5.03;;
5351;SDS011;2698;51.454;6.736;2023-06-19T11:56:18;6.30;;;5.70;;
5351;SDS011;2698;51.454;6.736;2023-06-19T11:58:45;6.63;;;6.03;;
5351;SDS011;2698;51.454;6.736;2023-06-19T12:01:13;6.47;;;5.77;;
5351;SDS011;2698;51.454;6.736;2023-06-19T12:03:40;9.40;;;5.87;;
5351;SDS011;2698;51.454;6.736;2023-06-19T12:06:07;7.50;;;5.77;;
5351;SDS011;2698;51.454;6.736;2023-06-19T12:08:36;7.60;;;5.73;;
5351;SDS011;2698;51.454;6.736;2023-06-19T12:11:03;7.23;;;5.27;;
5351;SDS011;2698;51.454;6.736;2023-06-19T12:13:34;8.07;;;5.20;;
5351;SDS011;2698;51.454;6.736;2023-06-19T12:16:01;6.80;;;5.20;;
5351;SDS011;2698;51.454;6.736;2023-06-19T12:18:28;7.18;;;5.28;;
5351;SDS011;2698;51.454;6.736;2023-06-19T12:20:56;7.57;;;6.03;;
5351;SDS011;2698;51.454;6.736;2023-06-19T12:23:23;7.20;;;5.30;;
5351;SDS011;2698;51.454;6.736;2023-06-19T12:25:51;8.23;;;5.70;;
5351;SDS011;2698;51.454;6.736;2023-06-19T12:28:18;8.93;;;5.72;;
5351;SDS011;2698;51.454;6.736;2023-06-19T12:30:46;9.77;;;5.13;;
5351;SDS011;2698;51.454;6.736;2023-06-19T12:33:16;12.65;;;5.47;;
5351;SDS011;2698;51.454;6.736;2023-06-19T12:35:44;5.47;;;5.07;;
5351;SDS011;2698;51.454;6.736;2023-06-19T12:38:11;5.82;;;5.32;;
5351;SDS011;2698;51.454;6.736;2023-06-19T12:40:38;6.07;;;5.57;;
5351;SDS011;2698;51.454;6.736;2023-06-19T12:43:07;7.63;;;5.73;;
5351;SDS011;2698;51.454;6.736;2023-06-19T12:45:34;6.28;;;5.30;;
5351;SDS011;2698;51.454;6.736;2023-06-19T12:48:01;10.40;;;5.53;;
5351;SDS011;2698;51.454;6.736;2023-06-19T12:50:28;6.83;;;5.07;;
5351;SDS011;2698;51.454;6.736;2023-06-19T12:52:55;8.18;;;5.07;;
5351;SDS011;2698;51.454;6.736;2023-06-19T12:55:22;7.20;;;5.78;;
5351;SDS011;2698;51.454;6.736;2023-06-19T12:57:49;6.45;;;5.70;;
5351;SDS011;2698;51.454;6.736;2023-06-19T13:00:18;7.57;;;6.22;;
5351;SDS011;2698;51.454;6.736;2023-06-19T13:02:45;6.78;;;5.72;;
5351;SDS011;2698;51.454;6.736;2023-06-19T13:05:12;13.90;;;5.65;;
5351;SDS011;2698;51.454;6.736;2023-06-19T13:07:39;5.53;;;4.70;;
5351;SDS011;2698;51.454;6.736;2023-06-19T13:10:07;9.00;;;5.85;;
5351;SDS011;2698;51.454;6.736;2023-06-19T13:12:34;8.80;;;5.80;;
5351;SDS011;2698;51.454;6.736;2023-06-19T13:15:01;5.75;;;5.25;;
5351;SDS011;2698;51.454;6.736;2023-06-19T13:17:30;5.50;;;5.03;;
5351;SDS011;2698;51.454;6.736;2023-06-19T13:19:57;9.63;;;5.77;;
5351;SDS011;2698;51.454;6.736;2023-06-19T13:22:24;10.57;;;5.63;;
5351;SDS011;2698;51.454;6.736;2023-06-19T13:24:51;6.57;;;5.50;;
5351;SDS011;2698;51.454;6.736;2023-06-19T13:27:18;11.03;;;6.00;;
5351;SDS011;2698;51.454;6.736;2023-06-19T13:29:45;8.60;;;4.87;;
5351;SDS011;2698;51.454;6.736;2023-06-19T13:32:12;9.67;;;5.50;;
5351;SDS011;2698;51.454;6.736;2023-06-19T13:34:41;7.17;;;5.10;;
5351;SDS011;2698;51.454;6.736;2023-06-19T13:37:08;5.70;;;5.20;;
5351;SDS011;2698;51.454;6.736;2023-06-19T13:39:35;6.23;;;5.63;;
5351;SDS011;2698;51.454;6.736;2023-06-19T13:42:03;11.13;;;5.83;;
5351;SDS011;2698;51.454;6.736;2023-06-19T13:44:30;5.80;;;5.10;;
5351;SDS011;2698;51.454;6.736;2023-06-19T13:46:57;8.40;;;5.43;;
5351;SDS011;2698;51.454;6.736;2023-06-19T13:49:25;5.70;;;5.10;;
5351;SDS011;2698;51.454;6.736;2023-06-19T13:51:54;5.88;;;5.38;;
5351;SDS011;2698;51.454;6.736;2023-06-19T13:54:21;11.30;;;5.33;;
5351;SDS011;2698;51.454;6.736;2023-06-19T13:56:49;5.13;;;4.47;;
5351;SDS011;2698;51.454;6.736;2023-06-19T13:59:17;13.20;;;5.20;;
5351;SDS011;2698;51.454;6.736;2023-06-19T14:01:44;5.00;;;4.53;;
5351;SDS011;2698;51.454;6.736;2023-06-19T14:04:11;5.80;;;4.60;;
5351;SDS011;2698;51.454;6.736;2023-06-19T14:06:39;8.30;;;5.17;;
5351;SDS011;2698;51.454;6.736;2023-06-19T14:09:09;7.47;;;4.30;;
5351;SDS011;2698;51.454;6.736;2023-06-19T14:11:36;5.47;;;4.83;;
5351;SDS011;2698;51.454;6.736;2023-06-19T14:14:03;9.07;;;4.30;;
5351;SDS011;2698;51.454;6.736;2023-06-19T14:16:30;10.30;;;4.50;;
5351;SDS011;2698;51.454;6.736;2023-06-19T14:18:57;10.43;;;4.97;;
5351;SDS011;2698;51.454;6.736;2023-06-19T14:21:25;4.40;;;4.10;;
5351;SDS011;2698;51.454;6.736;2023-06-19T14:23:52;5.40;;;4.23;;
5351;SDS011;2698;51.454;6.736;2023-06-19T14:26:21;5.40;;;4.70;;
5351;SDS011;2698;51.454;6.736;2023-06-19T14:28:48;5.83;;;5.30;;
5351;SDS011;2698;51.454;6.736;2023-06-19T14:31:20;5.33;;;4.40;;
5351;SDS011;2698;51.454;6.736;2023-06-19T14:33:47;5.37;;;4.40;;
5351;SDS011;2698;51.454;6.736;2023-06-19T14:36:15;5.80;;;5.30;;
5351;SDS011;2698;51.454;6.736;2023-06-19T14:38:42;5.97;;;5.40;;
5351;SDS011;2698;51.454;6.736;2023-06-19T14:41:09;4.97;;;4.57;;
5351;SDS011;2698;51.454;6.736;2023-06-19T14:43:38;5.60;;;4.90;;
5351;SDS011;2698;51.454;6.736;2023-06-19T14:46:05;7.27;;;5.13;;
5351;SDS011;2698;51.454;6.736;2023-06-19T14:48:32;6.13;;;5.50;;
5351;SDS011;2698;51.454;6.736;2023-06-19T14:51:00;5.30;;;4.50;;
5351;SDS011;2698;51.454;6.736;2023-06-19T14:53:29;4.40;;;3.90;;
5351;SDS011;2698;51.454;6.736;2023-06-19T14:55:56;7.07;;;4.23;;
5351;SDS011;2698;51.454;6.736;2023-06-19T14:58:23;5.30;;;4.80;;
5351;SDS011;2698;51.454;6.736;2023-06-19T15:00:54;5.60;;;5.00;;
5351;SDS011;2698;51.454;6.736;2023-06-19T15:03:22;5.40;;;4.90;;
5351;SDS011;2698;51.454;6.736;2023-06-19T15:05:49;8.27;;;5.30;;
5351;SDS011;2698;51.454;6.736;2023-06-19T15:08:17;9.63;;;4.93;;
5351;SDS011;2698;51.454;6.736;2023-06-19T15:10:47;6.63;;;5.10;;
5351;SDS011;2698;51.454;6.736;2023-06-19T15:13:14;5.53;;;4.70;;
5351;SDS011;2698;51.454;6.736;2023-06-19T15:15:42;4.70;;;4.30;;